createdAt,value
2022-10-31T19:02:07.700Z,29.1
2022-10-31T19:07:30.545Z,27.9
2022-10-31T19:12:52.808Z,27.1
2022-10-31T19:18:15.946Z,26.6
2022-10-31T19:23:38.584Z,25.9
2022-10-31T19:29:06.239Z,25.6
2022-10-31T19:34:28.700Z,25.3
2022-10-31T19:39:50.627Z,25.1
2022-10-31T19:45:11.622Z,24.9
2022-10-31T19:50:53.698Z,24.8
2022-10-31T19:56:17.323Z,24.8
2022-10-31T20:02:11.345Z,24.7
2022-10-31T20:07:53.668Z,24.6
2022-10-31T20:13:16.557Z,24.6
2022-10-31T20:18:54.366Z,24.6
2022-10-31T20:24:32.768Z,24.5
2022-10-31T20:30:10.944Z,24.5
2022-10-31T20:35:49.968Z,24.5
2022-10-31T20:41:02.147Z,24.5
2022-10-31T20:46:24.943Z,24.4
2022-10-31T20:51:46.420Z,24.4
2022-10-31T20:57:29.595Z,24.4
2022-10-31T21:03:08.643Z,24.4
2022-10-31T21:08:46.121Z,24.4
2022-10-31T21:14:29.748Z,24.4
2022-10-31T21:20:07.447Z,24.4
2022-10-31T21:25:46.695Z,24.4
2022-10-31T21:31:27.727Z,24.4
2022-10-31T21:36:49.912Z,24.4
2022-10-31T21:42:20.418Z,24.4
2022-10-31T21:47:59.226Z,24.4
2022-10-31T21:53:21.854Z,24.4
2022-10-31T21:58:58.801Z,24.4
2022-10-31T22:04:37.465Z,24.4
2022-10-31T22:10:15.649Z,24.4
2022-10-31T22:15:22.267Z,24.4
2022-10-31T22:21:00.514Z,24.4
2022-10-31T22:26:22.961Z,24.4
2022-10-31T22:32:02.073Z,24.4
2022-10-31T22:37:39.834Z,24.4
2022-10-31T22:43:01.992Z,24.4
2022-10-31T22:48:38.865Z,24.4
2022-10-31T22:54:00.773Z,24.4
2022-10-31T22:59:42.749Z,24.4
2022-10-31T23:05:06.757Z,24.5
